Avon, Colorado
Current Conditions -  °F | °C
As of 11:35 PM on Tuesday 27 Jan 2015 (Local Time) from KEGE Reporting Station
Overcast Overcast  
Wind Chill: -4°   Ceiling: 8000
Heat Index: -1°   Visibility: 10mi
Dew Point: -3°   Wind: 6mph
Humidity: 86%   Direction: 90°E
Pressure: 30.28"   Gusts: NA
Location:  39.63°N, 106.52°W
Report Text: KEGE 280635Z AUTO 09005KT 10SM SCT055 SCT070 OVC080 M01/M03 A3028 RMK AO1
Loading
Personal Weather Stations






























Interactive Weather Map New forecast layout! Learn more

10-Day Weather Forecast

Advertisements
Track Severe Weather on mobile